LIEE/CAG METAR and TAF weather

Enter ICAO airport designator
Station Type Date Time Source
LIEE METAR 2022/08/16 19:50 UTC NOAA

LIEE 161950Z 14007KT CAVOK 29/22 Q1011


Station Type Date Time Source
LIEE Decoded METAR 2022/08/16 19:50 UTC NOAA

Cagliari / Elmas, Italy (LIEE) 39-15N 009-04E 5M
Aug 16, 2022 - 03:50 PM EDT / 2022.08.16 1950 UTC
Wind: from the SE (140 degrees) at 8 MPH (7 KT):0
Visibility: greater than 7 mile(s):0
Temperature: 84 F (29 C)
Dew Point: 71 F (22 C)
Relative Humidity: 65%
Pressure (altimeter): 29.85 in. Hg (1011 hPa)
ob: LIEE 161950Z 14007KT CAVOK 29/22 Q1011
cycle: 20

Station Type Date Time Source
LIEE TAF 2022/08/16 18:21 UTC NOAA

TAF LIEE 161700Z 1618/1718 16010KT 9999 SCT030
BECMG 1618/1620 VRB05KT
BECMG 1708/1710 17012KT

Example: see airport list